Lexie, Mississippi
Current Conditions -  °F | °C
As of 10:53 AM on Friday 28 Nov 2014 (Local Time) from KMCB Reporting Station
Clear Clear  
Wind Chill: 50°   Ceiling: Unl
Heat Index: 50°   Visibility: 10mi
Dew Point: 27°   Wind: 7mph
Humidity: 41%   Direction: 150°SSE
Pressure: 30.41"   Gusts: NA
Location:  31.1485°N, 90.1061°W
Report Text: KMCB 281653Z AUTO 15006KT 10SM CLR 10/M03 A3041 RMK AO2 SLP298 T01001028
Loading
Personal Weather Stations






























Interactive Weather Map New forecast layout! Learn more

10-Day Weather Forecast

Advertisements
Track Severe Weather on mobile